createdAt,value
2017-09-04T00:01:04.524Z,7.51
2017-09-04T00:02:05.852Z,7.55
2017-09-04T00:03:11.683Z,7.46
2017-09-04T00:04:21.006Z,7.42
2017-09-04T00:05:22.519Z,7.38
2017-09-04T00:06:29.008Z,7.36
2017-09-04T00:07:33.860Z,7.40
2017-09-04T00:08:39.241Z,7.46
2017-09-04T00:09:45.664Z,7.46
2017-09-04T00:10:50.264Z,7.50
2017-09-04T00:11:55.900Z,7.51
2017-09-04T00:13:02.023Z,7.55
2017-09-04T00:14:10.018Z,7.53
2017-09-04T00:15:13.131Z,7.51
2017-09-04T00:16:18.039Z,7.46
2017-09-04T00:17:23.566Z,7.48
2017-09-04T00:18:29.025Z,7.44
2017-09-04T00:19:36.031Z,7.46
2017-09-04T00:20:41.028Z,7.46
2017-09-04T00:21:46.029Z,7.57
2017-09-04T00:22:51.698Z,7.67
2017-09-04T00:23:57.070Z,7.69
2017-09-04T00:25:04.569Z,7.77
2017-09-04T00:26:07.910Z,7.71
2017-09-04T00:27:13.465Z,7.61
2017-09-04T00:28:18.921Z,7.46
2017-09-04T00:29:25.042Z,7.32
2017-09-04T00:30:30.025Z,7.25
2017-09-04T00:31:36.305Z,7.28
2017-09-04T00:32:41.080Z,7.38
2017-09-04T00:33:47.238Z,7.42
2017-09-04T00:34:52.192Z,7.38
2017-09-04T00:35:57.947Z,7.34
2017-09-04T00:37:03.786Z,7.21
2017-09-04T00:38:10.053Z,7.07
2017-09-04T00:39:17.064Z,7.03
2017-09-04T00:40:20.094Z,7.03
2017-09-04T00:41:25.361Z,7.05
2017-09-04T00:42:32.091Z,7.13
2017-09-04T00:43:37.141Z,7.19
2017-09-04T00:44:42.708Z,7.15
2017-09-04T00:45:49.083Z,7.05
2017-09-04T00:46:53.588Z,6.98
2017-09-04T00:47:58.578Z,6.92
2017-09-04T00:49:04.112Z,6.92
2017-09-04T00:50:09.857Z,6.84
2017-09-04T00:51:15.243Z,6.80
2017-09-04T00:52:20.639Z,6.82
2017-09-04T00:53:26.386Z,6.90
2017-09-04T00:54:31.917Z,6.96
2017-09-04T00:55:38.099Z,6.98
2017-09-04T00:56:44.119Z,6.92
2017-09-04T00:57:48.510Z,6.98
2017-09-04T00:58:55.583Z,7.03
2017-09-04T01:00:00.094Z,7.09
2017-09-04T01:01:05.165Z,7.05
2017-09-04T01:02:12.124Z,7.05
2017-09-04T01:03:17.088Z,7.07
2017-09-04T01:04:21.652Z,7.05
2017-09-04T01:05:27.778Z,7.01
2017-09-04T01:06:32.998Z,6.92
2017-09-04T01:07:40.608Z,6.86
2017-09-04T01:08:44.414Z,6.78
2017-09-04T01:09:49.205Z,6.80
2017-09-04T01:10:55.421Z,6.82
2017-09-04T01:12:00.457Z,6.80
2017-09-04T01:13:06.061Z,6.82
2017-09-04T01:14:11.585Z,6.80
2017-09-04T01:15:16.928Z,6.73
2017-09-04T01:16:23.108Z,6.69
2017-09-04T01:17:27.888Z,6.69
2017-09-04T01:18:35.114Z,6.73
2017-09-04T01:19:39.718Z,6.77
2017-09-04T01:20:48.115Z,6.84
2017-09-04T01:21:52.116Z,6.84
2017-09-04T01:22:55.669Z,6.78
2017-09-04T01:24:03.627Z,6.73
2017-09-04T01:25:09.128Z,6.77
2017-09-04T01:26:12.815Z,6.79
2017-09-04T01:27:19.237Z,6.86
2017-09-04T01:28:24.626Z,6.88
2017-09-04T01:29:28.896Z,6.84
2017-09-04T01:30:34.575Z,6.76
2017-09-04T01:31:41.910Z,6.69
2017-09-04T01:32:45.583Z,6.65
2017-09-04T01:33:51.871Z,6.63
2017-09-04T01:34:57.232Z,6.59
2017-09-04T01:36:02.640Z,6.59
2017-09-04T01:37:08.295Z,6.61
2017-09-04T01:38:13.960Z,6.63
2017-09-04T01:39:19.140Z,6.61
2017-09-04T01:40:24.141Z,6.59
2017-09-04T01:41:30.310Z,6.65
2017-09-04T01:42:35.870Z,6.79
2017-09-04T01:43:41.445Z,6.86
2017-09-04T01:44:46.301Z,6.84
2017-09-04T01:45:52.870Z,6.84
2017-09-04T01:46:58.629Z,6.79
2017-09-04T01:48:05.037Z,6.80
2017-09-04T01:49:08.583Z,6.82
2017-09-04T01:50:15.662Z,6.88
2017-09-04T01:51:20.717Z,6.98
2017-09-04T01:52:25.860Z,6.98
2017-09-04T01:53:30.690Z,6.94
2017-09-04T01:54:36.215Z,6.88
2017-09-04T01:55:43.163Z,6.80
2017-09-04T01:56:48.193Z,6.75
2017-09-04T01:57:53.666Z,6.69
2017-09-04T01:58:58.845Z,6.71
2017-09-04T02:00:04.670Z,6.80
2017-09-04T02:01:09.440Z,6.86
2017-09-04T02:02:16.453Z,6.84
2017-09-04T02:03:22.177Z,6.86
2017-09-04T02:04:26.902Z,6.82
2017-09-04T02:05:32.178Z,6.80
2017-09-04T02:06:38.911Z,6.77
2017-09-04T02:07:43.856Z,6.71
2017-09-04T02:08:49.758Z,6.63
2017-09-04T02:09:54.185Z,6.61
2017-09-04T02:10:59.872Z,6.71
2017-09-04T02:12:04.741Z,6.80
2017-09-04T02:13:10.374Z,6.90
2017-09-04T02:14:15.851Z,6.90
2017-09-04T02:15:21.380Z,6.88
2017-09-04T02:16:27.024Z,6.82
2017-09-04T02:17:35.694Z,6.84
2017-09-04T02:18:38.699Z,6.80
2017-09-04T02:19:43.574Z,6.67
2017-09-04T02:20:50.705Z,6.65
2017-09-04T02:21:54.693Z,6.63
2017-09-04T02:23:01.857Z,6.59
2017-09-04T02:24:05.628Z,6.57
2017-09-04T02:25:11.345Z,6.53
2017-09-04T02:26:16.654Z,6.46
2017-09-04T02:27:22.323Z,6.40
2017-09-04T02:28:27.854Z,6.42
2017-09-04T02:29:34.817Z,6.57
2017-09-04T02:30:38.831Z,6.61
2017-09-04T02:31:46.773Z,6.67
2017-09-04T02:32:49.982Z,6.67
2017-09-04T02:33:55.468Z,6.67
2017-09-04T02:35:00.957Z,6.65
2017-09-04T02:36:06.490Z,6.61
2017-09-04T02:37:11.939Z,6.67
2017-09-04T02:38:21.822Z,6.67
2017-09-04T02:39:23.103Z,6.63
2017-09-04T02:40:28.767Z,6.53
2017-09-04T02:41:34.329Z,6.44
2017-09-04T02:42:39.751Z,6.34
2017-09-04T02:43:45.756Z,6.26
2017-09-04T02:44:53.235Z,6.21
2017-09-04T02:45:56.745Z,6.15
2017-09-04T02:47:03.237Z,6.15
2017-09-04T02:48:08.737Z,6.17
2017-09-04T02:49:13.013Z,6.13
2017-09-04T02:50:19.241Z,6.11
2017-09-04T02:51:24.326Z,6.09
2017-09-04T02:52:30.853Z,6.09
2017-09-04T02:53:35.167Z,6.07
2017-09-04T02:54:41.558Z,6.09
2017-09-04T02:55:46.759Z,6.17
2017-09-04T02:56:52.256Z,6.19
2017-09-04T02:57:57.757Z,6.25
2017-09-04T02:59:03.348Z,6.23
2017-09-04T03:00:08.903Z,6.15
2017-09-04T03:01:13.899Z,6.15
2017-09-04T03:02:19.311Z,6.21
2017-09-04T03:03:25.450Z,6.26
2017-09-04T03:04:31.397Z,6.19
2017-09-04T03:05:37.060Z,6.11
2017-09-04T03:06:42.280Z,6.01
2017-09-04T03:07:47.013Z,6.01
2017-09-04T03:08:53.500Z,6.13
2017-09-04T03:09:58.262Z,6.11
2017-09-04T03:11:04.331Z,6.05
2017-09-04T03:12:09.196Z,6.03
2017-09-04T03:13:14.715Z,5.94
2017-09-04T03:14:22.404Z,5.90
2017-09-04T03:15:26.321Z,5.86
2017-09-04T03:16:32.314Z,5.84
2017-09-04T03:17:36.918Z,5.84
2017-09-04T03:18:43.025Z,5.90
2017-09-04T03:19:48.922Z,6.05
2017-09-04T03:20:53.548Z,6.11
2017-09-04T03:22:00.060Z,6.05
2017-09-04T03:23:05.288Z,5.96
2017-09-04T03:24:10.943Z,6.00
2017-09-04T03:25:15.746Z,6.01
2017-09-04T03:26:21.160Z,5.98
2017-09-04T03:27:27.295Z,5.92
2017-09-04T03:28:32.896Z,5.88
2017-09-04T03:29:38.490Z,5.90
2017-09-04T03:30:44.080Z,5.88
2017-09-04T03:31:48.959Z,5.90
2017-09-04T03:32:54.541Z,5.94
2017-09-04T03:34:00.302Z,5.98
2017-09-04T03:35:05.605Z,6.05
2017-09-04T03:36:11.811Z,6.07
2017-09-04T03:37:17.417Z,6.11
2017-09-04T03:38:24.810Z,6.13
2017-09-04T03:39:28.819Z,6.21
2017-09-04T03:40:33.571Z,6.30
2017-09-04T03:41:38.571Z,6.30
2017-09-04T03:42:45.110Z,6.28
2017-09-04T03:43:50.442Z,6.30
2017-09-04T03:44:56.317Z,6.32
2017-09-04T03:46:01.706Z,6.36
2017-09-04T03:47:07.095Z,6.30
2017-09-04T03:48:13.842Z,6.21
2017-09-04T03:49:17.361Z,6.11
2017-09-04T03:50:23.110Z,6.05
2017-09-04T03:51:29.039Z,5.98
2017-09-04T03:52:35.901Z,5.90
2017-09-04T03:53:39.531Z,5.86
2017-09-04T03:54:45.147Z,5.80
2017-09-04T03:55:51.728Z,5.84
2017-09-04T03:56:56.924Z,5.88
2017-09-04T03:58:01.628Z,5.82
2017-09-04T03:59:07.401Z,5.76
2017-09-04T04:00:15.380Z,5.73
2017-09-04T04:01:18.988Z,5.69
2017-09-04T04:02:24.479Z,5.67
2017-09-04T04:03:29.854Z,5.80
2017-09-04T04:04:35.685Z,5.98
2017-09-04T04:05:42.533Z,6.03
2017-09-04T04:06:46.545Z,6.01
2017-09-04T04:07:51.504Z,5.96
2017-09-04T04:08:57.104Z,5.92
2017-09-04T04:10:04.852Z,5.90
2017-09-04T04:11:08.891Z,5.92
2017-09-04T04:12:16.889Z,5.92
2017-09-04T04:13:19.217Z,5.94
2017-09-04T04:14:24.649Z,5.88
2017-09-04T04:15:30.245Z,5.82
2017-09-04T04:16:36.627Z,5.73
2017-09-04T04:17:41.999Z,5.69
2017-09-04T04:18:47.567Z,5.67
2017-09-04T04:19:52.972Z,5.67
2017-09-04T04:20:58.369Z,5.67
2017-09-04T04:22:04.444Z,5.67
2017-09-04T04:23:09.027Z,5.69
2017-09-04T04:24:15.075Z,5.69
2017-09-04T04:25:20.108Z,5.69
2017-09-04T04:26:26.481Z,5.65
2017-09-04T04:27:31.064Z,5.63
2017-09-04T04:28:37.385Z,5.69
2017-09-04T04:29:42.197Z,5.80
2017-09-04T04:30:48.416Z,5.86
2017-09-04T04:31:53.889Z,5.84
2017-09-04T04:32:59.699Z,5.79
2017-09-04T04:34:05.003Z,5.73
2017-09-04T04:35:11.394Z,5.67
2017-09-04T04:36:15.476Z,5.63
2017-09-04T04:37:20.962Z,5.63
2017-09-04T04:38:26.426Z,5.63
2017-09-04T04:39:32.526Z,5.61
2017-09-04T04:40:37.917Z,5.67
2017-09-04T04:41:43.259Z,5.65
2017-09-04T04:42:48.636Z,5.71
2017-09-04T04:43:54.151Z,5.67
2017-09-04T04:45:00.410Z,5.67
2017-09-04T04:46:05.347Z,5.67
2017-09-04T04:47:10.788Z,5.71
2017-09-04T04:48:16.915Z,5.73
2017-09-04T04:49:21.885Z,5.75
2017-09-04T04:50:27.460Z,5.82
2017-09-04T04:51:33.572Z,5.84
2017-09-04T04:52:38.543Z,5.84
2017-09-04T04:53:44.116Z,5.90
2017-09-04T04:54:49.917Z,5.88
2017-09-04T04:55:55.572Z,5.98
2017-09-04T04:57:00.977Z,6.09
2017-09-04T04:58:06.188Z,6.15
2017-09-04T04:59:13.000Z,6.11
2017-09-04T05:00:17.107Z,6.09
2017-09-04T05:01:22.817Z,6.11
2017-09-04T05:02:29.288Z,6.17
2017-09-04T05:03:34.930Z,6.23
2017-09-04T05:04:39.296Z,6.30
2017-09-04T05:05:44.951Z,6.36
2017-09-04T05:06:50.573Z,6.40
2017-09-04T05:07:55.960Z,6.42
2017-09-04T05:09:01.466Z,6.42
2017-09-04T05:10:07.033Z,6.42
2017-09-04T05:11:13.443Z,6.38
2017-09-04T05:12:18.940Z,6.38
2017-09-04T05:13:24.447Z,6.42
2017-09-04T05:14:29.286Z,6.46
2017-09-04T05:15:35.713Z,6.48
2017-09-04T05:16:41.078Z,6.53
2017-09-04T05:17:46.516Z,6.55
2017-09-04T05:18:51.969Z,6.59
2017-09-04T05:19:57.472Z,6.67
2017-09-04T05:21:03.112Z,6.73
2017-09-04T05:22:07.782Z,6.77
2017-09-04T05:23:13.337Z,6.86
2017-09-04T05:24:21.555Z,6.86
2017-09-04T05:25:24.547Z,6.96
2017-09-04T05:26:29.912Z,7.03
2017-09-04T05:27:36.087Z,7.05
2017-09-04T05:28:41.279Z,7.09
2017-09-04T05:29:46.777Z,7.09
2017-09-04T05:30:52.397Z,7.15
2017-09-04T05:31:58.468Z,7.19
2017-09-04T05:33:03.324Z,7.26
2017-09-04T05:34:08.916Z,7.34
2017-09-04T05:35:14.402Z,7.44
2017-09-04T05:36:19.847Z,7.52
2017-09-04T05:37:26.119Z,7.53
2017-09-04T05:38:31.740Z,7.61
2017-09-04T05:39:37.479Z,7.65
2017-09-04T05:40:42.837Z,7.69
2017-09-04T05:41:47.566Z,7.73
2017-09-04T05:42:53.210Z,7.80
2017-09-04T05:43:58.622Z,7.92
2017-09-04T05:45:04.149Z,8.05
2017-09-04T05:46:10.490Z,8.19
2017-09-04T05:47:16.105Z,8.26
2017-09-04T05:48:20.820Z,8.27
2017-09-04T05:49:26.333Z,8.22
2017-09-04T05:50:31.821Z,8.26
2017-09-04T05:51:37.393Z,8.23
2017-09-04T05:52:43.050Z,8.25
2017-09-04T05:53:49.000Z,8.26
2017-09-04T05:54:54.044Z,8.30
2017-09-04T05:55:59.444Z,8.35
2017-09-04T05:57:04.998Z,8.43
2017-09-04T05:58:10.650Z,8.51
2017-09-04T05:59:17.032Z,8.52
2017-09-04T06:00:22.570Z,8.55
2017-09-04T06:01:28.010Z,8.55
2017-09-04T06:02:33.518Z,8.55
2017-09-04T06:03:38.313Z,8.57
2017-09-04T06:04:44.514Z,8.53
2017-09-04T06:05:49.385Z,8.57
2017-09-04T06:06:54.954Z,8.52
2017-09-04T06:08:01.031Z,8.47
2017-09-04T06:09:05.936Z,8.47
2017-09-04T06:10:11.543Z,8.43
2017-09-04T06:11:16.949Z,8.43
2017-09-04T06:12:23.128Z,8.46
2017-09-04T06:13:28.013Z,8.50
2017-09-04T06:14:33.601Z,8.55
2017-09-04T06:15:40.034Z,8.59
2017-09-04T06:16:44.686Z,8.64
2017-09-04T06:17:50.272Z,8.64
2017-09-04T06:18:55.976Z,8.65
2017-09-04T06:20:02.135Z,8.64
2017-09-04T06:21:07.684Z,8.65
2017-09-04T06:22:12.367Z,8.71
2017-09-04T06:23:18.775Z,8.79
2017-09-04T06:24:24.233Z,8.85
2017-09-04T06:25:28.903Z,8.93
2017-09-04T06:26:34.586Z,9.00
2017-09-04T06:27:40.072Z,9.06
2017-09-04T06:28:45.599Z,9.17
2017-09-04T06:29:51.229Z,9.21
2017-09-04T06:30:56.611Z,9.23
2017-09-04T06:32:03.560Z,9.28
2017-09-04T06:33:07.649Z,9.28
2017-09-04T06:34:14.178Z,9.32
2017-09-04T06:35:18.776Z,9.38
2017-09-04T06:36:24.308Z,9.34
2017-09-04T06:37:29.865Z,9.32
2017-09-04T06:38:35.462Z,9.42
2017-09-04T06:39:40.923Z,9.46
2017-09-04T06:40:47.299Z,9.48
2017-09-04T06:41:52.571Z,9.55
2017-09-04T06:42:57.461Z,9.56
2017-09-04T06:44:03.573Z,9.60
2017-09-04T06:45:09.083Z,9.67
2017-09-04T06:46:14.054Z,9.68
2017-09-04T06:47:20.191Z,9.68
2017-09-04T06:48:27.080Z,9.68
2017-09-04T06:49:31.581Z,9.68
2017-09-04T06:50:36.265Z,9.68
2017-09-04T06:51:41.782Z,9.77
2017-09-04T06:52:49.088Z,9.86
2017-09-04T06:53:52.858Z,9.94
2017-09-04T06:54:58.386Z,10.01
2017-09-04T06:56:03.936Z,10.01
2017-09-04T06:57:09.607Z,9.98
2017-09-04T06:58:15.002Z,10.06
2017-09-04T06:59:20.612Z,10.10
2017-09-04T07:00:26.787Z,10.10
2017-09-04T07:01:32.141Z,10.13
2017-09-04T07:02:37.230Z,10.13
2017-09-04T07:03:43.632Z,10.18
2017-09-04T07:04:48.296Z,10.18
2017-09-04T07:05:54.605Z,10.18
2017-09-04T07:07:00.251Z,10.19
2017-09-04T07:08:04.865Z,10.22
2017-09-04T07:09:10.303Z,10.23
2017-09-04T07:10:17.611Z,10.30
2017-09-04T07:11:23.112Z,10.31
2017-09-04T07:12:26.970Z,10.43
2017-09-04T07:13:32.541Z,10.53
2017-09-04T07:14:39.118Z,10.57
2017-09-04T07:15:44.143Z,10.60
2017-09-04T07:16:50.125Z,10.65
2017-09-04T07:17:55.122Z,10.72
2017-09-04T07:19:00.251Z,10.75
2017-09-04T07:20:06.775Z,10.80
2017-09-04T07:21:11.631Z,10.85
2017-09-04T07:22:17.196Z,10.93
2017-09-04T07:23:22.499Z,10.97
2017-09-04T07:24:27.925Z,11.02
2017-09-04T07:25:33.436Z,11.10
2017-09-04T07:26:39.868Z,11.26
2017-09-04T07:27:45.340Z,11.42
2017-09-04T07:28:50.812Z,11.57
2017-09-04T07:29:55.550Z,11.71
2017-09-04T07:31:01.120Z,11.82
2017-09-04T07:32:07.169Z,11.96
2017-09-04T07:33:12.152Z,12.07
2017-09-04T07:34:18.170Z,12.19
2017-09-04T07:35:23.226Z,12.32
2017-09-04T07:36:30.151Z,12.46
2017-09-04T07:37:34.656Z,12.56
2017-09-04T07:38:40.933Z,12.64
2017-09-04T07:39:45.314Z,12.68
2017-09-04T07:40:51.656Z,12.69
2017-09-04T07:41:56.384Z,12.71
2017-09-04T07:43:01.994Z,12.72
2017-09-04T07:44:07.591Z,12.75
2017-09-04T07:45:13.059Z,12.79
2017-09-04T07:46:19.695Z,12.85
2017-09-04T07:47:24.106Z,12.84
2017-09-04T07:48:29.786Z,12.82
2017-09-04T07:49:35.862Z,12.84
2017-09-04T07:50:41.341Z,12.89
2017-09-04T07:51:47.678Z,12.96
2017-09-04T07:52:51.908Z,13.02
2017-09-04T07:53:57.691Z,13.05
2017-09-04T07:55:02.870Z,13.10
2017-09-04T07:56:08.421Z,13.14
2017-09-04T07:57:14.863Z,13.22
2017-09-04T07:58:20.368Z,13.31
2017-09-04T07:59:25.005Z,13.36
2017-09-04T08:00:30.495Z,13.42
2017-09-04T08:01:36.543Z,13.43
2017-09-04T08:02:41.752Z,13.43
2017-09-04T08:03:47.693Z,13.43
2017-09-04T08:04:52.697Z,13.43
2017-09-04T08:05:58.262Z,13.43
2017-09-04T08:07:04.102Z,13.39
2017-09-04T08:08:09.278Z,13.38
2017-09-04T08:09:16.201Z,13.38
2017-09-04T08:10:21.724Z,13.39
2017-09-04T08:11:25.917Z,13.42
2017-09-04T08:12:32.217Z,13.47
2017-09-04T08:13:38.721Z,13.50
2017-09-04T08:14:42.523Z,13.55
2017-09-04T08:15:48.048Z,13.59
2017-09-04T08:16:53.610Z,13.61
2017-09-04T08:17:59.063Z,13.59
2017-09-04T08:19:04.666Z,13.61
2017-09-04T08:20:10.147Z,13.67
2017-09-04T08:21:15.660Z,13.69
2017-09-04T08:22:21.829Z,13.72
2017-09-04T08:23:27.336Z,13.69
2017-09-04T08:24:32.726Z,13.76
2017-09-04T08:25:37.805Z,13.84
2017-09-04T08:26:43.546Z,13.93
2017-09-04T08:27:49.015Z,14.01
2017-09-04T08:28:55.337Z,14.06
2017-09-04T08:30:00.944Z,14.10
2017-09-04T08:31:05.545Z,14.11
2017-09-04T08:32:11.069Z,14.14
2017-09-04T08:33:17.251Z,14.19
2017-09-04T08:34:22.068Z,14.26
2017-09-04T08:35:27.568Z,14.31
2017-09-04T08:36:33.186Z,14.35
2017-09-04T08:37:39.744Z,14.38
2017-09-04T08:38:44.747Z,14.43
2017-09-04T08:39:49.943Z,14.50
2017-09-04T08:40:55.407Z,14.52
2017-09-04T08:42:01.252Z,14.59
2017-09-04T08:43:07.255Z,14.56
2017-09-04T08:44:12.789Z,14.57
2017-09-04T08:45:17.518Z,14.59
2017-09-04T08:46:23.013Z,14.56
2017-09-04T08:47:29.266Z,14.56
2017-09-04T08:48:34.143Z,14.60
2017-09-04T08:49:39.600Z,14.60
2017-09-04T08:50:45.100Z,14.64
2017-09-04T08:51:50.764Z,14.68
2017-09-04T08:52:56.248Z,14.67
2017-09-04T08:54:02.344Z,14.72
2017-09-04T08:55:07.342Z,14.73
2017-09-04T08:56:12.846Z,14.71
2017-09-04T08:57:18.364Z,14.72
2017-09-04T08:58:23.910Z,14.84
2017-09-04T08:59:29.842Z,14.88
2017-09-04T09:00:35.131Z,14.89
2017-09-04T09:01:42.282Z,14.90
2017-09-04T09:02:47.804Z,14.98
2017-09-04T09:03:52.498Z,15.02
2017-09-04T09:04:57.789Z,15.06
2017-09-04T09:06:03.293Z,15.09
2017-09-04T09:07:08.206Z,15.10
2017-09-04T09:08:14.293Z,15.09
2017-09-04T09:09:20.315Z,15.05
2017-09-04T09:10:24.813Z,15.10
2017-09-04T09:11:30.799Z,15.14
2017-09-04T09:12:35.933Z,15.15
2017-09-04T09:13:42.803Z,15.22
2017-09-04T09:14:46.973Z,15.27
2017-09-04T09:15:52.443Z,15.31
2017-09-04T09:16:58.037Z,15.31
2017-09-04T09:18:03.662Z,15.32
2017-09-04T09:19:09.203Z,15.39
2017-09-04T09:20:16.313Z,15.47
2017-09-04T09:21:21.013Z,15.56
2017-09-04T09:22:25.747Z,15.61
2017-09-04T09:23:32.819Z,15.68
2017-09-04T09:24:36.773Z,15.69
2017-09-04T09:25:42.823Z,15.73
2017-09-04T09:26:47.811Z,15.77
2017-09-04T09:27:53.309Z,15.85
2017-09-04T09:28:59.016Z,15.93
2017-09-04T09:30:04.439Z,15.90
2017-09-04T09:31:10.051Z,15.85
2017-09-04T09:32:15.514Z,15.89
2017-09-04T09:33:21.052Z,16.00
2017-09-04T09:34:26.612Z,16.05
2017-09-04T09:35:32.228Z,16.12
2017-09-04T09:36:37.657Z,16.10
2017-09-04T09:37:43.176Z,16.11
2017-09-04T09:38:49.345Z,16.14
2017-09-04T09:39:54.965Z,16.17
2017-09-04T09:40:59.792Z,16.23
2017-09-04T09:42:05.849Z,16.32
2017-09-04T09:43:11.201Z,16.46
2017-09-04T09:44:16.853Z,16.62
2017-09-04T09:45:21.918Z,16.75
2017-09-04T09:46:27.474Z,16.79
2017-09-04T09:47:33.036Z,16.76
2017-09-04T09:48:39.564Z,16.70
2017-09-04T09:49:44.069Z,16.75
2017-09-04T09:50:49.738Z,16.76
2017-09-04T09:51:55.879Z,16.79
2017-09-04T09:53:00.662Z,16.87
2017-09-04T09:54:06.225Z,16.95
2017-09-04T09:55:12.372Z,16.98
2017-09-04T09:56:17.991Z,17.03
2017-09-04T09:57:22.896Z,17.04
2017-09-04T09:58:28.412Z,17.07
2017-09-04T09:59:33.883Z,17.09
2017-09-04T10:00:39.405Z,17.17
2017-09-04T10:01:44.959Z,17.25
2017-09-04T10:02:50.539Z,17.29
2017-09-04T10:03:57.009Z,17.35
2017-09-04T10:05:02.544Z,17.39
2017-09-04T10:06:07.131Z,17.54
2017-09-04T10:07:12.568Z,17.61
2017-09-04T10:08:18.979Z,17.62
2017-09-04T10:09:24.570Z,17.63
2017-09-04T10:10:30.050Z,17.67
2017-09-04T10:11:34.773Z,17.73
2017-09-04T10:12:40.315Z,17.81
2017-09-04T10:13:46.431Z,17.86
2017-09-04T10:14:51.475Z,17.93
2017-09-04T10:15:56.930Z,18.05
2017-09-04T10:17:02.481Z,18.14
2017-09-04T10:18:09.409Z,18.29
2017-09-04T10:19:13.622Z,18.38
2017-09-04T10:20:19.077Z,18.36
2017-09-04T10:21:24.592Z,18.38
2017-09-04T10:22:30.197Z,18.46
2017-09-04T10:23:36.420Z,18.53
2017-09-04T10:24:42.197Z,18.56
2017-09-04T10:25:47.619Z,18.69
2017-09-04T10:26:52.225Z,18.75
2017-09-04T10:27:59.543Z,18.71
2017-09-04T10:29:03.423Z,18.78
2017-09-04T10:30:08.986Z,18.89
2017-09-04T10:31:14.517Z,18.95
2017-09-04T10:32:20.028Z,19.06
2017-09-04T10:33:26.019Z,19.17
2017-09-04T10:34:31.029Z,19.27
2017-09-04T10:35:36.572Z,19.37
2017-09-04T10:36:42.097Z,19.40
2017-09-04T10:37:47.709Z,19.45
2017-09-04T10:38:53.159Z,19.55
2017-09-04T10:39:59.531Z,19.62
2017-09-04T10:41:04.249Z,19.72
2017-09-04T10:42:10.449Z,19.78
2017-09-04T10:43:16.191Z,19.90
2017-09-04T10:44:21.455Z,20.05
2017-09-04T10:45:26.448Z,20.23
2017-09-04T10:46:31.958Z,20.38
2017-09-04T10:47:37.483Z,20.47
2017-09-04T10:48:43.005Z,20.53
2017-09-04T10:49:48.585Z,21.89
2017-09-04T10:50:54.968Z,20.68
2017-09-04T10:52:00.983Z,20.79
2017-09-04T10:53:05.208Z,20.98
2017-09-04T10:54:10.636Z,21.13
2017-09-04T10:55:16.255Z,21.29
2017-09-04T10:56:23.080Z,21.32
2017-09-04T10:57:27.283Z,21.37
2017-09-04T10:58:33.694Z,21.52
2017-09-04T10:59:39.107Z,21.72
2017-09-04T11:00:43.974Z,21.87
2017-09-04T11:01:49.450Z,22.05
2017-09-04T11:02:54.954Z,22.14
2017-09-04T11:04:01.232Z,22.27
2017-09-04T11:05:06.016Z,22.37
2017-09-04T11:06:12.994Z,22.50
2017-09-04T11:07:17.493Z,22.70
2017-09-04T11:08:24.996Z,22.92
2017-09-04T11:09:28.261Z,23.13
2017-09-04T11:10:34.693Z,23.44
2017-09-04T11:11:39.335Z,23.71
2017-09-04T11:12:45.509Z,24.01
2017-09-04T11:13:51.032Z,24.21
2017-09-04T11:14:55.848Z,23.52
2017-09-04T11:16:02.152Z,23.55
2017-09-04T11:17:06.860Z,23.75
2017-09-04T11:18:13.140Z,24.11
2017-09-04T11:19:18.759Z,24.43
2017-09-04T11:20:24.033Z,24.71
2017-09-04T11:21:29.126Z,25.04
2017-09-04T11:22:34.640Z,25.22
2017-09-04T11:23:40.153Z,25.29
2017-09-04T11:24:46.533Z,25.29
2017-09-04T11:25:51.374Z,25.18
2017-09-04T11:26:56.800Z,24.89
2017-09-04T11:28:03.036Z,24.70
2017-09-04T11:29:07.837Z,24.50
2017-09-04T11:30:14.135Z,24.36
2017-09-04T11:31:18.889Z,24.37
2017-09-04T11:32:24.416Z,24.46
2017-09-04T11:33:30.716Z,24.50
2017-09-04T11:34:35.604Z,24.54
2017-09-04T11:35:41.545Z,24.47
2017-09-04T11:36:46.618Z,24.29
2017-09-04T11:37:52.094Z,24.29
2017-09-04T11:38:59.215Z,24.21
2017-09-04T11:40:03.652Z,24.23
2017-09-04T11:41:08.789Z,24.06
2017-09-04T11:42:15.231Z,24.03
2017-09-04T11:43:19.931Z,24.02
2017-09-04T11:44:26.166Z,24.03
2017-09-04T11:45:30.919Z,24.04
2017-09-04T11:46:36.399Z,24.01
2017-09-04T11:47:42.779Z,24.06
2017-09-04T11:48:47.507Z,24.17
2017-09-04T11:49:53.084Z,24.29
2017-09-04T11:50:58.485Z,24.39
2017-09-04T11:52:04.093Z,24.54
2017-09-04T11:53:10.624Z,24.50
2017-09-04T11:54:15.724Z,24.59
2017-09-04T11:55:20.707Z,24.53
2017-09-04T11:56:26.250Z,24.50
2017-09-04T11:57:31.778Z,24.45
2017-09-04T11:58:37.449Z,24.29
2017-09-04T11:59:42.848Z,24.17
2017-09-04T12:00:49.188Z,24.22
2017-09-04T12:01:53.960Z,24.23
2017-09-04T12:02:59.540Z,24.26
2017-09-04T12:04:04.926Z,24.23
2017-09-04T12:05:12.099Z,24.21
2017-09-04T12:06:16.791Z,24.27
2017-09-04T12:07:21.606Z,24.29
2017-09-04T12:08:27.725Z,24.27
2017-09-04T12:09:32.677Z,24.07
2017-09-04T12:10:39.607Z,24.01
2017-09-04T12:11:43.664Z,24.04
2017-09-04T12:12:49.233Z,24.05
2017-09-04T12:13:55.614Z,24.21
2017-09-04T12:15:00.417Z,24.47
2017-09-04T12:16:05.896Z,24.70
2017-09-04T12:17:11.459Z,24.88
2017-09-04T12:18:17.624Z,25.05
2017-09-04T12:19:23.331Z,25.25
2017-09-04T12:20:27.935Z,25.31
2017-09-04T12:21:33.546Z,25.25
2017-09-04T12:22:39.630Z,25.11
2017-09-04T12:23:44.609Z,25.12
2017-09-04T12:24:50.633Z,25.20
2017-09-04T12:25:55.698Z,25.23
2017-09-04T12:27:01.231Z,25.19
2017-09-04T12:28:06.799Z,25.11
2017-09-04T12:29:12.261Z,24.98
2017-09-04T12:30:18.360Z,24.90
2017-09-04T12:31:24.146Z,24.85
2017-09-04T12:32:29.785Z,24.79
2017-09-04T12:33:34.904Z,24.80
2017-09-04T12:34:40.068Z,24.87
2017-09-04T12:35:45.541Z,24.94
2017-09-04T12:36:51.887Z,25.00
2017-09-04T12:37:57.307Z,25.05
2017-09-04T12:39:02.070Z,25.32
2017-09-04T12:40:08.159Z,25.62
2017-09-04T12:41:13.106Z,25.87
2017-09-04T12:42:18.743Z,25.97
2017-09-04T12:43:25.167Z,26.11
2017-09-04T12:44:29.779Z,26.26
2017-09-04T12:45:35.793Z,26.32
2017-09-04T12:46:40.900Z,26.35
2017-09-04T12:47:46.394Z,26.42
2017-09-04T12:48:51.907Z,26.51
2017-09-04T12:50:00.189Z,26.55
2017-09-04T12:51:02.989Z,26.53
2017-09-04T12:52:08.626Z,26.52
2017-09-04T12:53:14.858Z,26.43
2017-09-04T12:54:19.609Z,26.14
2017-09-04T12:55:25.833Z,26.03
2017-09-04T12:56:31.290Z,26.00
2017-09-04T12:57:36.693Z,25.75
2017-09-04T12:58:41.821Z,25.56
2017-09-04T12:59:47.724Z,25.22
2017-09-04T13:00:54.700Z,24.95
2017-09-04T13:01:58.304Z,24.77
2017-09-04T13:03:04.747Z,24.72
2017-09-04T13:04:09.401Z,23.21
2017-09-04T13:05:15.061Z,24.59
2017-09-04T13:06:22.225Z,24.65
2017-09-04T13:07:26.707Z,24.71
2017-09-04T13:08:32.108Z,24.90
2017-09-04T13:09:37.199Z,25.25
2017-09-04T13:10:43.322Z,25.45
2017-09-04T13:11:48.153Z,25.57
2017-09-04T13:12:53.589Z,25.65
2017-09-04T13:13:59.317Z,25.82
2017-09-04T13:15:04.753Z,25.73
2017-09-04T13:16:10.276Z,25.75
2017-09-04T13:17:17.241Z,25.89
2017-09-04T13:18:21.489Z,26.07
2017-09-04T13:19:27.028Z,26.15
2017-09-04T13:20:32.505Z,26.20
2017-09-04T13:21:37.913Z,26.06
2017-09-04T13:22:43.549Z,25.82
2017-09-04T13:23:49.069Z,25.51
2017-09-04T13:24:56.155Z,25.25
2017-09-04T13:26:00.093Z,25.09
2017-09-04T13:27:05.668Z,24.96
2017-09-04T13:28:11.881Z,24.92
2017-09-04T13:29:17.768Z,24.98
2017-09-04T13:30:22.295Z,25.00
2017-09-04T13:31:27.814Z,24.98
2017-09-04T13:32:33.360Z,25.17
2017-09-04T13:33:38.837Z,25.23
2017-09-04T13:34:45.347Z,25.11
2017-09-04T13:35:49.946Z,25.02
2017-09-04T13:36:56.916Z,25.00
2017-09-04T13:38:00.955Z,24.93
2017-09-04T13:39:07.470Z,24.93
2017-09-04T13:40:12.965Z,24.95
2017-09-04T13:41:17.656Z,24.87
2017-09-04T13:42:23.208Z,24.79
2017-09-04T13:43:29.502Z,24.69
2017-09-04T13:44:34.782Z,24.59
2017-09-04T13:45:40.465Z,24.31
2017-09-04T13:46:45.979Z,24.11
2017-09-04T13:47:50.920Z,23.90
2017-09-04T13:48:56.412Z,23.72
2017-09-04T13:50:02.594Z,23.70
2017-09-04T13:51:07.421Z,23.68
2017-09-04T13:52:13.790Z,23.73
2017-09-04T13:53:18.528Z,23.85
2017-09-04T13:54:24.791Z,24.12
2017-09-04T13:55:30.310Z,24.43
2017-09-04T13:56:35.119Z,24.70
2017-09-04T13:57:41.498Z,24.81
2017-09-04T13:58:46.176Z,24.92
2017-09-04T13:59:51.711Z,25.01
2017-09-04T14:00:57.990Z,25.12
2017-09-04T14:02:03.309Z,25.22
2017-09-04T14:03:08.980Z,25.30
2017-09-04T14:04:13.864Z,25.37
2017-09-04T14:05:19.672Z,25.27
2017-09-04T14:06:24.895Z,25.17
2017-09-04T14:07:30.467Z,25.03
2017-09-04T14:08:36.051Z,24.87
2017-09-04T14:09:42.430Z,24.70
2017-09-04T14:10:48.076Z,24.48
2017-09-04T14:11:53.551Z,24.52
2017-09-04T14:12:58.852Z,24.48
2017-09-04T14:14:03.710Z,24.48
2017-09-04T14:15:09.982Z,24.43
2017-09-04T14:16:14.683Z,24.45
2017-09-04T14:17:20.371Z,24.55